x

Tanner Bank - 121nm West Of San Diego, Ca (46047) Wave Buoy

10:50 - Wed 24th May 2017 All times are PDT. -7 hours from GMT.

  • Sig Wave height 4.3ft
  • Swell Direction
  • Peak Period 14s
  • Average Period 6s
  • Wind
    9mph, 11mph gusts
  • Sea Temp 59°f
  • Air Temp 59°f
  • Sea Pressure 1011.4mb
  • Tanner Bank - 121nm West Of San Diego, Ca
  • Tanner Bank - 121nm West Of San Diego, Ca

More Historic Weather Station data

Upgrade to MSW Pro to gain access to the past 30 days of data for over 8000 Wavebouys and Weather Stations around the globe.

Join Pro

Comparision Forecast

View Surf forecast
   
mer. 05/24 10:50 4.5ft 14s 6s 9 11 mph 1011.4mb 59f 59f
9:50 4.5ft 14s 6s 11 13 mph 1010.9mb 59f 59f
8:50 4ft 14s 6s 13 16 mph 1010.4mb 59f 59f
7:50 4.5ft 14s 6s 16 20 mph 1010.1mb 59f 59f
6:50 4.5ft 14s 7s 18 20 mph 1010.3mb 59f 59f
5:50 4.5ft 14s 7s 18 20 mph 1010.7mb 60f 59f
4:50 4.5ft 14s 7s 16 20 mph 1010.8mb 60f 59f
3:50 4.5ft 14s 7s 13 18 mph 1011.5mb 60f 59f
2:50 4.5ft 14s 6s 11 13 mph 1012.1mb 60f 58f
1:50 5ft 15s 7s 11 13 mph 1012.6mb 60f 58f
12:50 4.5ft 14s 6s 11 11 mph 1012.9mb 60f 58f
11:50 5ft 14s 7s 9 11 mph 1013.1mb 59f 58f
10:50 5ft 15s 6s 11 13 mph 1013.3mb 59f 58f
9:50 5ft 14s 6s 16 18 mph 1012.6mb 59f 57f
8:50 5ft 15s 6s 16 20 mph 1012.5mb 59f 58f
7:50 4.5ft 15s 6s 16 20 mph 1012.6mb 59f 57f
6:50 5ft 15s 7s 16 18 mph 1012.5mb 59f 57f
5:50 4.5ft 15s 6s 16 20 mph 1012.3mb 59f 57f
4:50 4.5ft 15s 6s 13 18 mph 1012mb 60f 57f
3:50 4ft 14s 6s 16 18 mph 1012.3mb 60f 56f
2:50 4.5ft 15s 6s 11 13 mph 1012.8mb 60f 56f
1:50 4.5ft 15s 6s 11 13 mph 1013.1mb 60f 56f
12:50 5ft 15s 6s 13 18 mph 1013.7mb 60f 56f
mar. 05/23 11:50 4.5ft 15s 6s 11 13 mph 1014.1mb 60f 56f
10:50 5ft 16s 6s 13 16 mph 1014.3mb 60f 56f
9:50 5ft 15s 6s 16 18 mph 1013.6mb 60f 56f
8:50 4.5ft 14s 6s 16 20 mph 1013.4mb 60f 56f
7:50 4.5ft 15s 6s 18 20 mph 1013.2mb 60f 56f
6:50 4.5ft 15s 6s 16 18 mph 1013.2mb 60f 56f
5:50 4.5ft 15s 6s 18 20 mph 1013.5mb 60f 56f
4:50 4ft 15s  -  16 20 mph 1014.2mb 60f 57f
3:50 4.5ft 14s 6s 16 20 mph 1014.8mb 60f 57f
2:50 3.5ft 14s 5s 16 18 mph 1015mb 60f 57f
1:50 4.5ft 14s 6s 16 18 mph 1015.1mb 60f 56f
12:50 4.5ft 15s 6s 13 16 mph 1015.6mb 60f 57f
11:50 4.5ft 15s 6s 16 18 mph 1016mb 60f 56f
10:50 4.5ft 15s 6s 13 16 mph 1015.5mb 60f 56f
9:50 4.5ft 15s 6s 16 18 mph 1015.6mb 60f 56f
8:50 4.5ft 15s 6s 13 16 mph 1015.7mb 60f 55f
7:50 4.5ft 15s 6s 11 13 mph 1015.5mb 60f 54f
6:50 4.5ft 15s 6s 13 18 mph 1014mb 60f 55f
5:50 4.5ft 15s 6s 13 16 mph 1014.1mb 60f 54f
4:50 4.5ft 14s 6s 9 13 mph 1014.4mb 60f 55f
3:50 4.5ft 15s 6s 11 13 mph 1014.6mb 60f 55f
2:50 4.5ft 15s 6s 11 18 mph 1014.7mb 60f 55f
1:50 5ft 16s 6s 13 18 mph 1014.6mb 60f 55f
12:50 4.5ft 15s 6s 13 18 mph 1015.1mb 60f 55f
lun. 05/22 11:50 5ft 15s 6s 16 18 mph 1015.4mb 60f 55f
10:50 4.5ft 15s 6s 16 22 mph 1015.2mb 60f 56f
9:50 5ft 16s 6s 16 20 mph 1015.1mb 60f 56f
8:50 5ft 15s 6s 16 20 mph 1014.8mb 60f 56f
7:50 5.5ft 16s 7s 16 20 mph 1014.4mb 60f 56f
6:50 5ft 16s 6s 16 18 mph 1014.1mb 60f 56f
5:50 4.5ft 16s 6s 16 20 mph 1014.5mb 60f 56f
4:50 4.5ft 16s 6s 16 18 mph 1014.8mb 60f 56f
3:50 4.5ft 15s 6s 16 18 mph 1014.7mb 60f 56f
2:50 4.5ft 16s 6s 16 20 mph 1015.1mb 60f 56f
1:50 4.5ft 16s 6s 16 20 mph 1015.5mb 60f 57f
12:50 5ft 16s 6s 13 18 mph 1015.9mb 60f 56f
11:50 5ft 14s 6s 11 16 mph 1016.3mb 60f 56f
10:50 5ft 16s 6s 16 20 mph 1016mb 60f 56f
9:50 5.5ft 16s 6s 13 18 mph 1016.1mb 60f 55f
8:50 6ft 16s 6s 16 18 mph 1015.6mb 60f 55f
7:50 6ft 16s 6s 13 18 mph 1015.1mb 60f 54f
6:50 5.5ft 13s 6s 13 18 mph 1014.7mb 60f 54f
5:50 5ft 11s 6s 13 16 mph 1014mb 60f 55f
4:50 5ft 15s 6s 16 18 mph 1013.5mb 60f 54f
3:50 5ft 14s 6s 13 18 mph 1013.7mb 60f 55f
2:50 4.5ft 12s 6s 13 18 mph 1014.1mb 60f 55f
1:50 4.5ft 17s 6s 13 16 mph 1014.6mb 60f 55f
12:50 5ft 15s 6s 13 18 mph 1014.6mb 60f 55f
dim. 05/21 11:50 4.5ft 14s 6s 16 20 mph 1014.7mb 60f 55f
10:50 5ft 13s 6s 16 20 mph 1014.9mb 60f 56f
9:50 5.5ft 9s 6s 16 22 mph 1014.8mb 60f 56f
8:50 6ft 14s 6s 18 22 mph 1014.1mb 60f 56f
7:50 6ft 9s 6s 18 22 mph 1013.6mb 60f 56f
6:50 5ft 12s 6s 18 20 mph 1013.3mb 60f 57f
5:50 5.5ft 9s 6s 18 22 mph 1013.4mb 60f 57f
4:50 5.5ft 13s 6s 20 22 mph 1013.6mb 60f 57f
3:50 5ft 9s 6s 18 20 mph 1014mb 60f 57f
2:50 5ft 9s 6s 18 20 mph 1014.2mb 60f 57f
1:50 5ft 9s 6s 18 22 mph 1014.4mb 60f 57f
12:50 4.5ft 12s 6s 16 20 mph 1014.4mb 60f 56f
11:50 5ft 14s 6s 16 18 mph 1014.6mb 60f 56f
10:50 5ft 9s 6s 16 18 mph 1014.3mb 59f 56f
9:50 4.5ft 9s 5s 16 20 mph 1014.1mb 60f 56f
8:50 5.5ft 9s 6s 18 20 mph 1013.5mb 60f 56f
7:50 6ft 9s 6s 18 20 mph 1013mb 60f 56f
6:50 5ft 8s 6s 13 18 mph 1012.7mb 60f 56f